Time,TemperatureF,DewpointF,PressureIn,WindDirection,WindDirectionDegrees,WindSpeedMPH,WindSpeedGustMPH,Humidity,HourlyPrecipIn,Conditions,Clouds,dailyrainin,SolarRadiationWatts/m^2,SoftwareType,DateUTC
2013-01-20 00:01:00,9.6,4.4,30.61,East,96,0.0,0.0,79,0.00,,,0.00,0,Wunderground v.1.15,2013-01-20 07:01:00,
2013-01-20 00:07:00,9.2,4.0,30.61,East,96,0.0,0.0,79,0.00,,,0.00,0,Wunderground v.1.15,2013-01-20 07:07:00,
2013-01-20 00:13:00,9.1,4.2,30.61,East,96,0.0,0.0,80,0.00,,,0.00,0,Wunderground v.1.15,2013-01-20 07:13:00,
2013-01-20 00:18:00,9.1,4.2,30.61,East,96,0.0,0.0,80,0.00,,,0.00,0,Wunderground v.1.15,2013-01-20 07:18:00,
2013-01-20 00:24:00,9.0,3.8,30.61,East,96,0.0,0.0,79,0.00,,,0.00,0,Wunderground v.1.15,2013-01-20 07:24:00,
2013-01-20 00:30:00,8.8,3.6,30.61,East,96,0.0,0.0,79,0.00,,,0.00,0,Wunderground v.1.15,2013-01-20 07:30:00,
2013-01-20 00:35:00,8.7,3.5,30.61,East,96,0.0,0.0,79,0.00,,,0.00,0,Wunderground v.1.15,2013-01-20 07:35:00,
2013-01-20 00:41:00,8.5,3.3,30.61,East,96,0.0,0.0,79,0.00,,,0.00,0,Wunderground v.1.15,2013-01-20 07:41:00,
2013-01-20 00:47:00,8.2,3.0,30.61,East,96,0.0,0.0,79,0.00,,,0.00,0,Wunderground v.1.15,2013-01-20 07:47:00,
2013-01-20 00:52:00,7.6,2.2,30.61,East,96,0.0,0.0,78,0.00,,,0.00,0,Wunderground v.1.15,2013-01-20 07:52:00,
2013-01-20 00:57:00,7.5,2.3,30.60,East,96,0.0,0.0,79,0.00,,,0.00,0,Wunderground v.1.15,2013-01-20 07:57:00,
2013-01-20 01:02:00,7.6,2.4,30.60,East,96,0.0,0.0,79,0.00,,,0.00,0,Wunderground v.1.15,2013-01-20 08:02:00,
2013-01-20 01:08:00,7.6,2.4,30.61,East,96,0.0,0.0,79,0.00,,,0.00,0,Wunderground v.1.15,2013-01-20 08:08:00,
2013-01-20 01:14:00,7.7,2.8,30.61,East,96,0.0,0.0,80,0.00,,,0.00,0,Wunderground v.1.15,2013-01-20 08:14:00,
2013-01-20 01:19:00,7.8,2.6,30.61,East,96,0.0,0.0,79,0.00,,,0.00,0,Wunderground v.1.15,2013-01-20 08:19:00,
2013-01-20 01:24:00,7.7,2.5,30.60,East,96,0.0,0.0,79,0.00,,,0.00,0,Wunderground v.1.15,2013-01-20 08:24:00,
2013-01-20 01:29:00,7.4,2.3,30.60,East,96,0.0,0.0,79,0.00,,,0.00,0,Wunderground v.1.15,2013-01-20 08:29:00,
2013-01-20 01:34:00,6.9,1.5,30.60,East,96,0.0,0.0,78,0.00,,,0.00,0,Wunderground v.1.15,2013-01-20 08:34:00,
2013-01-20 01:39:00,6.8,1.7,30.60,East,96,0.0,0.0,79,0.00,,,0.00,0,Wunderground v.1.15,2013-01-20 08:39:00,
2013-01-20 01:44:00,6.9,1.8,30.60,East,96,0.0,0.0,79,0.00,,,0.00,0,Wunderground v.1.15,2013-01-20 08:44:00,
2013-01-20 01:50:00,7.0,1.9,30.60,East,96,0.0,0.0,79,0.00,,,0.00,0,Wunderground v.1.15,2013-01-20 08:50:00,
2013-01-20 01:56:00,6.9,1.8,30.60,East,96,0.0,0.0,79,0.00,,,0.00,0,Wunderground v.1.15,2013-01-20 08:56:00,
2013-01-20 02:01:00,6.8,1.7,30.60,East,96,0.0,0.0,79,0.00,,,0.00,0,Wunderground v.1.15,2013-01-20 09:01:00,
2013-01-20 02:06:00,6.7,1.6,30.60,East,96,0.0,0.0,79,0.00,,,0.00,0,Wunderground v.1.15,2013-01-20 09:06:00,
2013-01-20 02:11:00,6.5,1.4,30.60,East,96,0.0,0.0,79,0.00,,,0.00,0,Wunderground v.1.15,2013-01-20 09:11:00,
2013-01-20 02:16:00,6.2,0.8,30.60,East,96,0.0,0.0,78,0.00,,,0.00,0,Wunderground v.1.15,2013-01-20 09:16:00,
2013-01-20 02:21:00,5.9,0.8,30.61,East,96,0.0,0.0,79,0.00,,,0.00,0,Wunderground v.1.15,2013-01-20 09:21:00,
2013-01-20 02:26:00,5.8,0.4,30.61,East,96,0.0,0.0,78,0.00,,,0.00,0,Wunderground v.1.15,2013-01-20 09:26:00,
2013-01-20 02:31:00,5.5,0.1,30.61,East,96,0.0,0.0,78,0.00,,,0.00,0,Wunderground v.1.15,2013-01-20 09:31:00,
2013-01-20 02:36:00,5.3,-0.1,30.61,East,96,0.0,0.0,78,0.00,,,0.00,0,Wunderground v.1.15,2013-01-20 09:36:00,
2013-01-20 02:41:00,5.2,-0.2,30.61,East,96,0.0,0.0,78,0.00,,,0.00,0,Wunderground v.1.15,2013-01-20 09:41:00,
2013-01-20 02:46:00,5.1,-0.3,30.61,East,96,0.0,0.0,78,0.00,,,0.00,0,Wunderground v.1.15,2013-01-20 09:46:00,
2013-01-20 02:51:00,5.3,0.2,30.61,East,96,0.0,0.0,79,0.00,,,0.00,0,Wunderground v.1.15,2013-01-20 09:51:00,
2013-01-20 02:57:00,5.4,0.3,30.61,East,96,0.0,0.0,79,0.00,,,0.00,0,Wunderground v.1.15,2013-01-20 09:57:00,
2013-01-20 03:02:00,5.3,0.2,30.61,East,96,0.0,0.0,79,0.00,,,0.00,0,Wunderground v.1.15,2013-01-20 10:02:00,
2013-01-20 03:07:00,5.4,0.3,30.61,East,96,0.0,0.0,79,0.00,,,0.00,0,Wunderground v.1.15,2013-01-20 10:07:00,
2013-01-20 03:12:00,5.6,0.5,30.61,East,96,0.0,0.0,79,0.00,,,0.00,0,Wunderground v.1.15,2013-01-20 10:12:00,
2013-01-20 03:17:00,5.5,0.4,30.61,East,96,0.0,0.0,79,0.00,,,0.00,0,Wunderground v.1.15,2013-01-20 10:17:00,
2013-01-20 03:22:00,5.3,0.2,30.61,East,96,0.0,0.0,79,0.00,,,0.00,0,Wunderground v.1.15,2013-01-20 10:22:00,
2013-01-20 03:27:00,4.9,-0.5,30.61,East,96,0.0,0.0,78,0.00,,,0.00,0,Wunderground v.1.15,2013-01-20 10:27:00,
2013-01-20 03:32:00,4.6,-0.8,30.61,East,96,0.0,0.0,78,0.00,,,0.00,0,Wunderground v.1.15,2013-01-20 10:32:00,
2013-01-20 03:37:00,4.5,-0.6,30.61,East,96,0.0,0.0,79,0.00,,,0.00,0,Wunderground v.1.15,2013-01-20 10:37:00,
2013-01-20 03:42:00,4.5,-0.6,30.61,East,96,0.0,0.0,79,0.00,,,0.00,0,Wunderground v.1.15,2013-01-20 10:42:00,
2013-01-20 03:47:00,4.4,-0.7,30.61,East,96,0.0,0.0,79,0.00,,,0.00,0,Wunderground v.1.15,2013-01-20 10:47:00,
2013-01-20 03:52:00,4.3,-1.0,30.61,East,96,0.0,0.0,78,0.00,,,0.00,0,Wunderground v.1.15,2013-01-20 10:52:00,
2013-01-20 03:57:00,4.1,-1.0,30.61,East,96,0.0,0.0,79,0.00,,,0.00,0,Wunderground v.1.15,2013-01-20 10:57:00,
2013-01-20 04:03:00,4.1,-1.0,30.61,East,96,0.0,0.0,79,0.00,,,0.00,0,Wunderground v.1.15,2013-01-20 11:03:00,
2013-01-20 04:08:00,4.1,-1.0,30.60,East,96,0.0,0.0,79,0.00,,,0.00,0,Wunderground v.1.15,2013-01-20 11:08:00,
2013-01-20 04:13:00,4.1,-1.0,30.60,East,96,0.0,0.0,79,0.00,,,0.00,0,Wunderground v.1.15,2013-01-20 11:13:00,
2013-01-20 04:18:00,4.1,-1.0,30.60,East,96,0.0,0.0,79,0.00,,,0.00,0,Wunderground v.1.15,2013-01-20 11:18:00,
2013-01-20 04:23:00,4.0,-1.1,30.60,East,96,0.0,0.0,79,0.00,,,0.00,0,Wunderground v.1.15,2013-01-20 11:23:00,
2013-01-20 04:28:00,3.7,-1.4,30.60,East,96,0.0,0.0,79,0.00,,,0.00,0,Wunderground v.1.15,2013-01-20 11:28:00,
2013-01-20 04:33:00,3.4,-1.7,30.60,East,96,0.0,0.0,79,0.00,,,0.00,0,Wunderground v.1.15,2013-01-20 11:33:00,
2013-01-20 04:38:00,3.2,-1.8,30.60,East,96,0.0,0.0,79,0.00,,,0.00,0,Wunderground v.1.15,2013-01-20 11:38:00,
2013-01-20 04:43:00,3.0,-2.3,30.60,East,96,0.0,0.0,78,0.00,,,0.00,0,Wunderground v.1.15,2013-01-20 11:43:00,
2013-01-20 04:48:00,2.9,-2.1,30.60,East,96,0.0,0.0,79,0.00,,,0.00,0,Wunderground v.1.15,2013-01-20 11:48:00,
2013-01-20 04:53:00,2.9,-2.1,30.59,East,96,0.0,0.0,79,0.00,,,0.00,0,Wunderground v.1.15,2013-01-20 11:53:00,
2013-01-20 04:59:00,2.6,-2.7,30.60,East,96,0.0,0.0,78,0.00,,,0.00,0,Wunderground v.1.15,2013-01-20 11:59:00,
2013-01-20 05:04:00,2.2,-3.1,30.59,East,96,0.0,0.0,78,0.00,,,0.00,0,Wunderground v.1.15,2013-01-20 12:04:00,
2013-01-20 05:09:00,2.2,-2.8,30.59,East,96,0.0,0.0,79,0.00,,,0.00,0,Wunderground v.1.15,2013-01-20 12:09:00,
2013-01-20 05:14:00,2.1,-3.2,30.60,East,96,0.0,0.0,78,0.00,,,0.00,0,Wunderground v.1.15,2013-01-20 12:14:00,
2013-01-20 05:19:00,1.8,-3.5,30.59,East,96,0.0,0.0,78,0.00,,,0.00,0,Wunderground v.1.15,2013-01-20 12:19:00,
2013-01-20 05:24:00,1.9,-3.1,30.59,East,96,0.0,0.0,79,0.00,,,0.00,0,Wunderground v.1.15,2013-01-20 12:24:00,
2013-01-20 05:29:00,2.0,-3.0,30.59,East,96,0.0,0.0,79,0.00,,,0.00,0,Wunderground v.1.15,2013-01-20 12:29:00,
2013-01-20 05:34:00,2.1,-2.9,30.59,East,96,0.0,0.0,79,0.00,,,0.00,0,Wunderground v.1.15,2013-01-20 12:34:00,
2013-01-20 05:39:00,2.2,-2.8,30.59,East,96,0.0,0.0,79,0.00,,,0.00,0,Wunderground v.1.15,2013-01-20 12:39:00,
2013-01-20 05:44:00,2.1,-2.9,30.59,East,96,0.0,0.0,79,0.00,,,0.00,0,Wunderground v.1.15,2013-01-20 12:44:00,
2013-01-20 05:49:00,2.1,-2.9,30.59,East,96,0.0,0.0,79,0.00,,,0.00,0,Wunderground v.1.15,2013-01-20 12:49:00,
2013-01-20 05:54:00,2.1,-2.9,30.60,East,96,0.0,0.0,79,0.00,,,0.00,0,Wunderground v.1.15,2013-01-20 12:54:00,
2013-01-20 05:59:00,2.0,-3.0,30.59,East,96,0.0,0.0,79,0.00,,,0.00,0,Wunderground v.1.15,2013-01-20 12:59:00,
2013-01-20 06:04:00,1.9,-3.1,30.59,East,96,0.0,0.0,79,0.00,,,0.00,0,Wunderground v.1.15,2013-01-20 13:04:00,
2013-01-20 06:09:00,1.8,-3.2,30.59,East,96,0.0,0.0,79,0.00,,,0.00,0,Wunderground v.1.15,2013-01-20 13:09:00,
2013-01-20 06:14:00,1.9,-3.1,30.59,East,96,0.0,0.0,79,0.00,,,0.00,0,Wunderground v.1.15,2013-01-20 13:14:00,
2013-01-20 06:19:00,1.7,-3.3,30.59,East,96,0.0,0.0,79,0.00,,,0.00,0,Wunderground v.1.15,2013-01-20 13:19:00,
2013-01-20 06:24:00,1.2,-4.1,30.60,East,96,0.0,0.0,78,0.00,,,0.00,0,Wunderground v.1.15,2013-01-20 13:24:00,
2013-01-20 06:29:00,0.8,-4.5,30.60,East,96,0.0,0.0,78,0.00,,,0.00,0,Wunderground v.1.15,2013-01-20 13:29:00,
2013-01-20 06:34:00,0.5,-4.7,30.59,East,96,0.0,0.0,78,0.00,,,0.00,0,Wunderground v.1.15,2013-01-20 13:34:00,
2013-01-20 06:39:00,0.4,-4.8,30.59,East,96,0.0,0.0,78,0.00,,,0.00,0,Wunderground v.1.15,2013-01-20 13:39:00,
2013-01-20 06:44:00,0.6,-4.4,30.59,East,96,0.0,0.0,79,0.00,,,0.00,0,Wunderground v.1.15,2013-01-20 13:44:00,
2013-01-20 06:49:00,0.6,-4.4,30.59,East,96,0.0,0.0,79,0.00,,,0.00,0,Wunderground v.1.15,2013-01-20 13:49:00,
2013-01-20 06:54:00,0.4,-4.8,30.59,East,96,0.0,0.0,78,0.00,,,0.00,0,Wunderground v.1.15,2013-01-20 13:54:00,
2013-01-20 06:59:00,0.4,-4.6,30.59,East,96,0.0,0.0,79,0.00,,,0.00,0,Wunderground v.1.15,2013-01-20 13:59:00,
2013-01-20 07:04:00,0.5,-4.5,30.59,East,96,0.0,0.0,79,0.00,,,0.00,0,Wunderground v.1.15,2013-01-20 14:04:00,
2013-01-20 07:10:00,0.5,-4.5,30.59,East,96,0.0,0.0,79,0.00,,,0.00,0,Wunderground v.1.15,2013-01-20 14:10:00,
2013-01-20 07:15:00,0.3,-4.7,30.59,East,96,0.0,0.0,79,0.00,,,0.00,0,Wunderground v.1.15,2013-01-20 14:15:00,
2013-01-20 07:20:00,0.0,-5.2,30.59,East,96,0.0,0.0,78,0.00,,,0.00,0,Wunderground v.1.15,2013-01-20 14:20:00,
2013-01-20 07:25:00,-0.1,-5.3,30.59,East,96,0.0,0.0,78,0.00,,,0.00,0,Wunderground v.1.15,2013-01-20 14:25:00,
2013-01-20 07:30:00,-0.1,-5.3,30.59,East,96,0.0,0.0,78,0.00,,,0.00,0,Wunderground v.1.15,2013-01-20 14:30:00,
2013-01-20 07:35:00,0.0,-5.0,30.59,East,96,0.0,0.0,79,0.00,,,0.00,5,Wunderground v.1.15,2013-01-20 14:35:00,
2013-01-20 07:40:00,0.1,-4.9,30.59,East,96,0.0,0.0,79,0.00,,,0.00,7,Wunderground v.1.15,2013-01-20 14:40:00,
2013-01-20 07:45:00,0.1,-4.9,30.59,East,96,0.0,0.0,79,0.00,,,0.00,9,Wunderground v.1.15,2013-01-20 14:45:00,
2013-01-20 07:50:00,0.2,-4.8,30.59,East,96,0.0,0.0,79,0.00,,,0.00,11,Wunderground v.1.15,2013-01-20 14:50:00,
2013-01-20 07:55:00,0.3,-4.7,30.59,East,96,0.0,0.0,79,0.00,,,0.00,16,Wunderground v.1.15,2013-01-20 14:55:00,
2013-01-20 08:00:00,1.1,-3.6,30.59,East,96,0.0,0.0,80,0.00,,,0.00,25,Wunderground v.1.15,2013-01-20 15:00:00,
2013-01-20 08:05:00,1.9,-2.8,30.59,East,96,0.0,0.0,80,0.00,,,0.00,35,Wunderground v.1.15,2013-01-20 15:05:00,
2013-01-20 08:10:00,2.7,-2.1,30.59,East,96,0.0,0.0,80,0.00,,,0.00,47,Wunderground v.1.15,2013-01-20 15:10:00,
2013-01-20 08:15:00,3.6,-1.2,30.59,East,96,0.0,0.0,80,0.00,,,0.00,60,Wunderground v.1.15,2013-01-20 15:15:00,
2013-01-20 08:20:00,4.6,-0.2,30.59,East,96,0.0,0.0,80,0.00,,,0.00,86,Wunderground v.1.15,2013-01-20 15:20:00,
2013-01-20 08:25:00,5.8,1.2,30.59,East,96,0.0,0.0,81,0.00,,,0.00,105,Wunderground v.1.15,2013-01-20 15:25:00,
2013-01-20 08:30:00,7.3,2.7,30.59,East,96,0.0,0.0,81,0.00,,,0.00,127,Wunderground v.1.15,2013-01-20 15:30:00,
2013-01-20 08:35:00,8.9,4.3,30.59,East,96,0.0,0.0,81,0.00,,,0.00,160,Wunderground v.1.15,2013-01-20 15:35:00,
2013-01-20 08:40:00,9.9,5.0,30.59,East,96,0.0,0.0,80,0.00,,,0.00,193,Wunderground v.1.15,2013-01-20 15:40:00,
2013-01-20 08:45:00,10.5,5.5,30.59,East,96,0.0,0.0,80,0.00,,,0.00,213,Wunderground v.1.15,2013-01-20 15:45:00,
2013-01-20 08:50:00,11.3,6.3,30.59,East,96,0.0,0.0,80,0.00,,,0.00,234,Wunderground v.1.15,2013-01-20 15:50:00,
2013-01-20 08:55:00,12.3,7.3,30.59,East,96,0.0,0.0,80,0.00,,,0.00,251,Wunderground v.1.15,2013-01-20 15:55:00,
2013-01-20 09:00:00,13.3,8.3,30.59,East,96,0.0,0.0,80,0.00,,,0.00,272,Wunderground v.1.15,2013-01-20 16:00:00,
2013-01-20 09:05:00,14.4,9.4,30.59,East,96,0.0,0.0,80,0.00,,,0.00,294,Wunderground v.1.15,2013-01-20 16:05:00,
2013-01-20 09:10:00,15.5,10.1,30.59,East,96,0.0,0.0,79,0.00,,,0.00,295,Wunderground v.1.15,2013-01-20 16:10:00,
2013-01-20 09:15:00,16.6,10.9,30.59,East,96,0.0,0.0,78,0.00,,,0.00,299,Wunderground v.1.15,2013-01-20 16:15:00,
2013-01-20 09:20:00,17.9,11.6,30.59,East,96,0.0,0.0,76,0.00,,,0.00,308,Wunderground v.1.15,2013-01-20 16:20:00,
2013-01-20 09:25:00,19.7,13.4,30.59,East,96,0.0,0.0,76,0.00,,,0.00,304,Wunderground v.1.15,2013-01-20 16:25:00,
2013-01-20 09:30:00,22.1,15.1,30.59,East,96,0.0,0.0,74,0.00,,,0.00,315,Wunderground v.1.15,2013-01-20 16:30:00,
2013-01-20 09:35:00,23.7,15.7,30.59,East,96,0.0,0.0,71,0.00,,,0.00,329,Wunderground v.1.15,2013-01-20 16:35:00,
2013-01-20 09:40:00,25.4,16.0,30.59,East,96,0.0,0.0,67,0.00,,,0.00,345,Wunderground v.1.15,2013-01-20 16:40:00,
2013-01-20 09:45:00,27.3,17.1,30.59,East,96,0.0,0.0,65,0.00,,,0.00,362,Wunderground v.1.15,2013-01-20 16:45:00,
2013-01-20 09:50:00,28.9,17.9,30.59,East,96,0.0,0.0,63,0.00,,,0.00,376,Wunderground v.1.15,2013-01-20 16:50:00,
2013-01-20 09:55:00,30.6,18.7,30.58,East,96,0.0,0.0,61,0.00,,,0.00,390,Wunderground v.1.15,2013-01-20 16:55:00,
2013-01-20 10:00:00,32.4,19.3,30.58,East,96,0.0,0.0,58,0.00,,,0.00,403,Wunderground v.1.15,2013-01-20 17:00:00,
2013-01-20 10:05:00,33.6,18.7,30.58,East,96,0.0,0.0,54,0.00,,,0.00,415,Wunderground v.1.15,2013-01-20 17:05:00,
2013-01-20 10:10:00,34.8,18.9,30.58,East,96,0.0,0.0,52,0.00,,,0.00,427,Wunderground v.1.15,2013-01-20 17:10:00,
2013-01-20 10:15:00,35.7,19.8,30.58,East,96,0.0,0.0,52,0.00,,,0.00,439,Wunderground v.1.15,2013-01-20 17:15:00,
2013-01-20 10:20:00,36.4,20.9,30.58,East,96,0.0,0.0,53,0.00,,,0.00,450,Wunderground v.1.15,2013-01-20 17:20:00,
2013-01-20 10:25:00,36.9,20.0,30.58,East,96,0.0,0.0,50,0.00,,,0.00,461,Wunderground v.1.15,2013-01-20 17:25:00,
2013-01-20 10:30:00,36.8,19.9,30.58,East,96,0.0,0.0,50,0.00,,,0.00,473,Wunderground v.1.15,2013-01-20 17:30:00,
2013-01-20 10:35:00,37.5,21.0,30.58,East,96,0.0,0.0,51,0.00,,,0.00,478,Wunderground v.1.15,2013-01-20 17:35:00,
2013-01-20 10:40:00,37.9,20.4,30.58,East,96,0.0,0.0,49,0.00,,,0.00,489,Wunderground v.1.15,2013-01-20 17:40:00,
2013-01-20 10:45:00,38.3,19.3,30.57,East,96,0.0,0.0,46,0.00,,,0.00,497,Wunderground v.1.15,2013-01-20 17:45:00,
2013-01-20 10:50:00,39.5,20.9,30.57,East,96,0.0,0.0,47,0.00,,,0.00,504,Wunderground v.1.15,2013-01-20 17:50:00,
2013-01-20 10:55:00,39.7,19.5,30.57,East,96,0.0,0.0,44,0.00,,,0.00,513,Wunderground v.1.15,2013-01-20 17:55:00,
2013-01-20 11:00:00,40.6,19.8,30.56,East,96,0.0,0.0,43,0.00,,,0.00,522,Wunderground v.1.15,2013-01-20 18:00:00,
2013-01-20 11:05:00,41.1,19.7,30.56,East,96,0.0,0.0,42,0.00,,,0.00,529,Wunderground v.1.15,2013-01-20 18:05:00,
2013-01-20 11:10:00,41.1,19.7,30.56,East,96,0.0,0.0,42,0.00,,,0.00,536,Wunderground v.1.15,2013-01-20 18:10:00,
2013-01-20 11:15:00,41.0,20.2,30.56,East,96,0.0,0.0,43,0.00,,,0.00,541,Wunderground v.1.15,2013-01-20 18:15:00,
2013-01-20 11:21:00,41.2,19.8,30.56,East,96,0.0,0.0,42,0.00,,,0.00,548,Wunderground v.1.15,2013-01-20 18:21:00,
2013-01-20 11:26:00,42.0,20.5,30.56,East,96,0.0,0.0,42,0.00,,,0.00,552,Wunderground v.1.15,2013-01-20 18:26:00,
2013-01-20 11:31:00,42.2,19.6,30.55,East,96,0.0,0.0,40,0.00,,,0.00,559,Wunderground v.1.15,2013-01-20 18:31:00,
2013-01-20 11:36:00,42.0,18.8,30.55,East,96,0.0,0.0,39,0.00,,,0.00,563,Wunderground v.1.15,2013-01-20 18:36:00,
2013-01-20 11:41:00,42.0,18.8,30.55,East,96,0.0,0.0,39,0.00,,,0.00,566,Wunderground v.1.15,2013-01-20 18:41:00,
2013-01-20 11:46:00,42.2,19.0,30.54,SSE,155,0.0,7.0,39,0.00,,,0.00,571,Wunderground v.1.15,2013-01-20 18:46:00,
2013-01-20 11:51:00,42.4,19.2,30.54,SSE,155,0.0,0.0,39,0.00,,,0.00,575,Wunderground v.1.15,2013-01-20 18:51:00,
2013-01-20 11:56:00,43.1,19.8,30.54,SSE,155,0.0,0.0,39,0.00,,,0.00,577,Wunderground v.1.15,2013-01-20 18:56:00,
2013-01-20 12:01:00,43.7,19.7,30.54,SSE,153,0.0,0.0,38,0.00,,,0.00,582,Wunderground v.1.15,2013-01-20 19:01:00,
2013-01-20 12:06:00,43.6,17.7,30.53,ESE,117,0.0,1.0,35,0.00,,,0.00,584,Wunderground v.1.15,2013-01-20 19:06:00,
2013-01-20 12:11:00,43.3,16.8,30.53,ESE,114,0.0,1.0,34,0.00,,,0.00,584,Wunderground v.1.15,2013-01-20 19:11:00,
2013-01-20 12:16:00,43.5,18.3,30.52,ESE,114,0.0,1.0,36,0.00,,,0.00,585,Wunderground v.1.15,2013-01-20 19:16:00,
2013-01-20 12:21:00,43.3,17.4,30.52,East,99,0.0,0.0,35,0.00,,,0.00,585,Wunderground v.1.15,2013-01-20 19:21:00,
2013-01-20 12:26:00,43.7,19.1,30.52,East,99,0.0,0.0,37,0.00,,,0.00,587,Wunderground v.1.15,2013-01-20 19:26:00,
2013-01-20 12:31:00,43.6,18.4,30.51,East,99,0.0,0.0,36,0.00,,,0.00,585,Wunderground v.1.15,2013-01-20 19:31:00,
2013-01-20 12:36:00,43.7,18.5,30.51,East,100,0.0,3.0,36,0.00,,,0.00,587,Wunderground v.1.15,2013-01-20 19:36:00,
2013-01-20 12:41:00,44.1,18.8,30.51,East,100,0.0,0.0,36,0.00,,,0.00,584,Wunderground v.1.15,2013-01-20 19:41:00,
2013-01-20 12:46:00,44.8,18.8,30.51,East,99,0.0,0.0,35,0.00,,,0.00,585,Wunderground v.1.15,2013-01-20 19:46:00,
2013-01-20 12:51:00,45.2,19.8,30.50,ESE,119,0.0,1.0,36,0.00,,,0.00,582,Wunderground v.1.15,2013-01-20 19:51:00,
2013-01-20 12:56:00,45.4,20.0,30.50,ESE,119,0.0,1.0,36,0.00,,,0.00,582,Wunderground v.1.15,2013-01-20 19:56:00,
2013-01-20 13:01:00,44.5,20.4,30.50,ESE,106,0.0,2.0,38,0.00,,,0.00,578,Wunderground v.1.15,2013-01-20 20:01:00,
2013-01-20 13:06:00,44.2,19.5,30.50,East,86,0.0,2.0,37,0.00,,,0.00,575,Wunderground v.1.15,2013-01-20 20:06:00,
2013-01-20 13:11:00,44.0,20.6,30.50,SE,127,6.0,6.0,39,0.00,,,0.00,571,Wunderground v.1.15,2013-01-20 20:11:00,
2013-01-20 13:16:00,44.1,21.3,30.49,ESE,121,2.0,6.0,40,0.00,,,0.00,568,Wunderground v.1.15,2013-01-20 20:16:00,
2013-01-20 13:21:00,44.1,20.7,30.49,ESE,123,0.0,1.0,39,0.00,,,0.00,563,Wunderground v.1.15,2013-01-20 20:21:00,
2013-01-20 13:26:00,44.0,21.2,30.49,East,83,0.0,2.0,40,0.00,,,0.00,557,Wunderground v.1.15,2013-01-20 20:26:00,
2013-01-20 13:31:00,43.8,21.0,30.49,ESE,104,0.0,0.0,40,0.00,,,0.00,552,Wunderground v.1.15,2013-01-20 20:31:00,
2013-01-20 13:36:00,44.0,21.8,30.49,ESE,120,0.0,0.0,41,0.00,,,0.00,547,Wunderground v.1.15,2013-01-20 20:36:00,
2013-01-20 13:41:00,43.9,21.1,30.48,ESE,114,0.0,0.0,40,0.00,,,0.00,540,Wunderground v.1.15,2013-01-20 20:41:00,
2013-01-20 13:46:00,43.7,20.9,30.48,East,90,0.0,2.0,40,0.00,,,0.00,536,Wunderground v.1.15,2013-01-20 20:46:00,
2013-01-20 13:52:00,43.8,20.4,30.48,ESE,105,0.0,0.0,39,0.00,,,0.00,527,Wunderground v.1.15,2013-01-20 20:52:00,
2013-01-20 13:57:00,43.8,21.0,30.48,ESE,110,0.0,3.0,40,0.00,,,0.00,520,Wunderground v.1.15,2013-01-20 20:57:00,
2013-01-20 14:02:00,44.0,20.0,30.48,East,94,1.0,3.0,38,0.00,,,0.00,512,Wunderground v.1.15,2013-01-20 21:02:00,
2013-01-20 14:07:00,44.0,20.6,30.48,East,92,0.0,3.0,39,0.00,,,0.00,506,Wunderground v.1.15,2013-01-20 21:07:00,
2013-01-20 14:12:00,44.1,20.7,30.47,East,93,0.0,1.0,39,0.00,,,0.00,497,Wunderground v.1.15,2013-01-20 21:12:00,
2013-01-20 14:17:00,44.7,20.6,30.47,SE,141,0.0,3.0,38,0.00,,,0.00,487,Wunderground v.1.15,2013-01-20 21:17:00,
2013-01-20 14:23:00,44.9,20.2,30.48,SE,137,0.0,0.0,37,0.00,,,0.00,478,Wunderground v.1.15,2013-01-20 21:23:00,
2013-01-20 14:28:00,44.7,20.6,30.48,East,98,1.0,5.0,38,0.00,,,0.00,469,Wunderground v.1.15,2013-01-20 21:28:00,
2013-01-20 14:33:00,44.3,20.3,30.48,East,95,0.0,3.0,38,0.00,,,0.00,461,Wunderground v.1.15,2013-01-20 21:33:00,
2013-01-20 14:38:00,44.5,21.0,30.47,East,100,0.0,3.0,39,0.00,,,0.00,450,Wunderground v.1.15,2013-01-20 21:38:00,
2013-01-20 14:43:00,44.7,20.6,30.47,ESE,109,0.0,3.0,38,0.00,,,0.00,438,Wunderground v.1.15,2013-01-20 21:43:00,
2013-01-20 14:48:00,44.5,20.4,30.47,East,96,1.0,5.0,38,0.00,,,0.00,427,Wunderground v.1.15,2013-01-20 21:48:00,
2013-01-20 14:53:00,44.4,21.0,30.47,SE,129,0.0,6.0,39,0.00,,,0.00,417,Wunderground v.1.15,2013-01-20 21:53:00,
2013-01-20 14:58:00,44.3,20.9,30.47,East,99,0.0,6.0,39,0.00,,,0.00,406,Wunderground v.1.15,2013-01-20 21:58:00,
2013-01-20 15:03:00,44.3,21.5,30.47,ESE,107,0.0,3.0,40,0.00,,,0.00,394,Wunderground v.1.15,2013-01-20 22:03:00,
2013-01-20 15:09:00,44.2,20.8,30.47,ESE,119,0.0,3.0,39,0.00,,,0.00,380,Wunderground v.1.15,2013-01-20 22:09:00,
2013-01-20 15:14:00,44.4,21.0,30.47,East,100,4.0,4.0,39,0.00,,,0.00,367,Wunderground v.1.15,2013-01-20 22:14:00,
2013-01-20 15:19:00,44.2,20.8,30.48,ESE,113,0.0,4.0,39,0.00,,,0.00,355,Wunderground v.1.15,2013-01-20 22:19:00,
2013-01-20 15:24:00,44.0,21.2,30.48,East,98,0.0,3.0,40,0.00,,,0.00,343,Wunderground v.1.15,2013-01-20 22:24:00,
2013-01-20 15:29:00,43.8,21.0,30.47,ESE,104,1.0,3.0,40,0.00,,,0.00,330,Wunderground v.1.15,2013-01-20 22:29:00,
2013-01-20 15:34:00,43.8,21.0,30.48,ESE,105,3.0,3.0,40,0.00,,,0.00,318,Wunderground v.1.15,2013-01-20 22:34:00,
2013-01-20 15:39:00,43.5,21.3,30.47,East,95,0.0,4.0,41,0.00,,,0.00,302,Wunderground v.1.15,2013-01-20 22:39:00,
2013-01-20 15:44:00,43.2,21.1,30.47,ENE,78,2.0,4.0,41,0.00,,,0.00,288,Wunderground v.1.15,2013-01-20 22:44:00,
2013-01-20 15:49:00,43.0,20.9,30.47,ENE,67,5.0,5.0,41,0.00,,,0.00,276,Wunderground v.1.15,2013-01-20 22:49:00,
2013-01-20 15:54:00,43.0,21.4,30.47,ENE,77,2.0,4.0,42,0.00,,,0.00,262,Wunderground v.1.15,2013-01-20 22:54:00,
2013-01-20 15:59:00,42.7,21.2,30.47,ENE,77,0.0,4.0,42,0.00,,,0.00,248,Wunderground v.1.15,2013-01-20 22:59:00,
2013-01-20 16:04:00,42.4,20.3,30.47,ENE,69,2.0,2.0,41,0.00,,,0.00,232,Wunderground v.1.15,2013-01-20 23:04:00,
2013-01-20 16:09:00,42.2,20.2,30.47,East,86,1.0,4.0,41,0.00,,,0.00,220,Wunderground v.1.15,2013-01-20 23:09:00,
2013-01-20 16:14:00,42.2,20.7,30.47,ENE,66,2.0,2.0,42,0.00,,,0.00,204,Wunderground v.1.15,2013-01-20 23:14:00,
2013-01-20 16:19:00,42.0,20.5,30.47,ENE,71,0.0,3.0,42,0.00,,,0.00,186,Wunderground v.1.15,2013-01-20 23:19:00,
2013-01-20 16:24:00,42.0,21.1,30.47,ENE,72,0.0,3.0,43,0.00,,,0.00,167,Wunderground v.1.15,2013-01-20 23:24:00,
2013-01-20 16:29:00,41.6,20.2,30.47,ENE,74,0.0,3.0,42,0.00,,,0.00,149,Wunderground v.1.15,2013-01-20 23:29:00,
2013-01-20 16:34:00,41.5,20.6,30.47,ENE,74,0.0,0.0,43,0.00,,,0.00,130,Wunderground v.1.15,2013-01-20 23:34:00,
2013-01-20 16:39:00,41.2,20.9,30.47,ENE,74,0.0,0.0,44,0.00,,,0.00,111,Wunderground v.1.15,2013-01-20 23:39:00,
2013-01-20 16:45:00,40.9,20.6,30.47,ENE,74,0.0,0.0,44,0.00,,,0.00,93,Wunderground v.1.15,2013-01-20 23:45:00,
2013-01-20 16:50:00,40.4,20.2,30.47,ENE,77,0.0,0.0,44,0.00,,,0.00,77,Wunderground v.1.15,2013-01-20 23:50:00,
2013-01-20 16:55:00,40.0,20.3,30.47,ENE,77,0.0,0.0,45,0.00,,,0.00,62,Wunderground v.1.15,2013-01-20 23:55:00,
2013-01-20 17:00:00,39.7,20.1,30.47,East,97,0.0,0.0,45,0.00,,,0.00,47,Wunderground v.1.15,2013-01-21 00:00:00,
2013-01-20 17:05:00,39.3,19.7,30.48,East,96,0.0,0.0,45,0.00,,,0.00,35,Wunderground v.1.15,2013-01-21 00:05:00,
2013-01-20 17:10:00,39.0,19.4,30.48,East,97,0.0,0.0,45,0.00,,,0.00,25,Wunderground v.1.15,2013-01-21 00:10:00,
2013-01-20 17:15:00,38.6,19.6,30.48,East,97,0.0,0.0,46,0.00,,,0.00,16,Wunderground v.1.15,2013-01-21 00:15:00,
2013-01-20 17:20:00,38.2,19.2,30.48,East,97,0.0,0.0,46,0.00,,,0.00,12,Wunderground v.1.15,2013-01-21 00:20:00,
2013-01-20 17:25:00,37.7,19.3,30.48,East,97,0.0,0.0,47,0.00,,,0.00,11,Wunderground v.1.15,2013-01-21 00:25:00,
2013-01-20 17:30:00,37.3,18.9,30.48,East,97,0.0,0.0,47,0.00,,,0.00,9,Wunderground v.1.15,2013-01-21 00:30:00,
2013-01-20 17:35:00,36.9,18.5,30.49,East,96,0.0,0.0,47,0.00,,,0.00,7,Wunderground v.1.15,2013-01-21 00:35:00,
2013-01-20 17:40:00,36.4,18.6,30.49,East,97,0.0,0.0,48,0.00,,,0.00,5,Wunderground v.1.15,2013-01-21 00:40:00,
2013-01-20 17:45:00,35.9,18.6,30.49,East,96,0.0,0.0,49,0.00,,,0.00,0,Wunderground v.1.15,2013-01-21 00:45:00,
2013-01-20 17:50:00,35.4,18.1,30.49,East,96,0.0,0.0,49,0.00,,,0.00,0,Wunderground v.1.15,2013-01-21 00:50:00,
2013-01-20 17:55:00,35.0,17.7,30.49,East,97,0.0,0.0,49,0.00,,,0.00,0,Wunderground v.1.15,2013-01-21 00:55:00,
2013-01-20 18:00:00,34.0,17.7,30.49,East,97,0.0,0.0,51,0.00,,,0.00,0,Wunderground v.1.15,2013-01-21 01:00:00,
2013-01-20 18:05:00,32.1,17.7,30.49,East,96,0.0,0.0,55,0.00,,,0.00,0,Wunderground v.1.15,2013-01-21 01:05:00,
2013-01-20 18:10:00,30.4,17.4,30.49,East,97,0.0,0.0,58,0.00,,,0.00,0,Wunderground v.1.15,2013-01-21 01:10:00,
2013-01-20 18:15:00,29.6,17.4,30.49,East,97,0.0,0.0,60,0.00,,,0.00,0,Wunderground v.1.15,2013-01-21 01:15:00,
2013-01-20 18:20:00,29.0,17.2,30.49,East,96,0.0,0.0,61,0.00,,,0.00,0,Wunderground v.1.15,2013-01-21 01:20:00,
2013-01-20 18:26:00,28.2,16.8,30.50,East,97,0.0,0.0,62,0.00,,,0.00,0,Wunderground v.1.15,2013-01-21 01:26:00,
2013-01-20 18:31:00,27.7,16.7,30.50,East,97,0.0,0.0,63,0.00,,,0.00,0,Wunderground v.1.15,2013-01-21 01:31:00,
2013-01-20 18:36:00,27.2,17.0,30.50,East,96,0.0,0.0,65,0.00,,,0.00,0,Wunderground v.1.15,2013-01-21 01:36:00,
2013-01-20 18:41:00,26.8,17.0,30.50,East,96,0.0,0.0,66,0.00,,,0.00,0,Wunderground v.1.15,2013-01-21 01:41:00,
2013-01-20 18:46:00,26.4,16.9,30.50,East,97,0.0,0.0,67,0.00,,,0.00,0,Wunderground v.1.15,2013-01-21 01:46:00,
2013-01-20 18:52:00,25.9,16.1,30.50,East,97,0.0,0.0,66,0.00,,,0.00,0,Wunderground v.1.15,2013-01-21 01:52:00,
2013-01-20 18:57:00,25.1,15.7,30.50,East,97,0.0,0.0,67,0.00,,,0.00,0,Wunderground v.1.15,2013-01-21 01:57:00,
2013-01-20 19:02:00,24.4,15.7,30.50,East,97,0.0,0.0,69,0.00,,,0.00,0,Wunderground v.1.15,2013-01-21 02:02:00,
2013-01-20 19:07:00,24.2,15.5,30.50,East,97,0.0,0.0,69,0.00,,,0.00,0,Wunderground v.1.15,2013-01-21 02:07:00,
2013-01-20 19:12:00,24.1,15.4,30.51,East,97,0.0,0.0,69,0.00,,,0.00,0,Wunderground v.1.15,2013-01-21 02:12:00,
2013-01-20 19:17:00,24.2,15.8,30.51,East,96,0.0,0.0,70,0.00,,,0.00,0,Wunderground v.1.15,2013-01-21 02:17:00,
2013-01-20 19:22:00,23.8,15.4,30.51,East,97,0.0,0.0,70,0.00,,,0.00,0,Wunderground v.1.15,2013-01-21 02:22:00,
2013-01-20 19:27:00,23.3,15.0,30.51,East,96,0.0,0.0,70,0.00,,,0.00,0,Wunderground v.1.15,2013-01-21 02:27:00,
2013-01-20 19:32:00,22.9,14.9,30.52,East,97,0.0,0.0,71,0.00,,,0.00,0,Wunderground v.1.15,2013-01-21 02:32:00,
2013-01-20 19:37:00,22.5,14.8,30.52,East,97,0.0,0.0,72,0.00,,,0.00,0,Wunderground v.1.15,2013-01-21 02:37:00,
2013-01-20 19:43:00,22.2,14.9,30.52,East,96,0.0,0.0,73,0.00,,,0.00,0,Wunderground v.1.15,2013-01-21 02:43:00,
2013-01-20 19:48:00,22.2,15.2,30.52,East,96,0.0,0.0,74,0.00,,,0.00,0,Wunderground v.1.15,2013-01-21 02:48:00,
2013-01-20 19:53:00,22.6,15.6,30.52,East,97,0.0,0.0,74,0.00,,,0.00,0,Wunderground v.1.15,2013-01-21 02:53:00,
2013-01-20 19:58:00,23.1,15.4,30.52,East,97,0.0,0.0,72,0.00,,,0.00,0,Wunderground v.1.15,2013-01-21 02:58:00,
2013-01-20 20:03:00,22.6,14.6,30.52,East,97,0.0,0.0,71,0.00,,,0.00,0,Wunderground v.1.15,2013-01-21 03:03:00,
2013-01-20 20:08:00,22.0,14.3,30.52,East,97,0.0,0.0,72,0.00,,,0.00,0,Wunderground v.1.15,2013-01-21 03:08:00,
2013-01-20 20:13:00,21.7,14.4,30.52,East,97,0.0,0.0,73,0.00,,,0.00,0,Wunderground v.1.15,2013-01-21 03:13:00,
2013-01-20 20:18:00,21.6,14.9,30.52,East,96,0.0,0.0,75,0.00,,,0.00,0,Wunderground v.1.15,2013-01-21 03:18:00,
2013-01-20 20:24:00,21.5,14.8,30.52,East,96,0.0,0.0,75,0.00,,,0.00,0,Wunderground v.1.15,2013-01-21 03:24:00,
2013-01-20 20:29:00,21.2,14.2,30.52,East,97,0.0,0.0,74,0.00,,,0.00,0,Wunderground v.1.15,2013-01-21 03:29:00,
2013-01-20 20:34:00,20.8,13.8,30.53,East,97,0.0,0.0,74,0.00,,,0.00,0,Wunderground v.1.15,2013-01-21 03:34:00,
2013-01-20 20:39:00,20.4,13.4,30.53,East,97,0.0,0.0,74,0.00,,,0.00,0,Wunderground v.1.15,2013-01-21 03:39:00,
2013-01-20 20:44:00,20.0,13.3,30.53,East,97,0.0,0.0,75,0.00,,,0.00,0,Wunderground v.1.15,2013-01-21 03:44:00,
2013-01-20 20:49:00,19.7,13.1,30.52,East,97,0.0,0.0,75,0.00,,,0.00,0,Wunderground v.1.15,2013-01-21 03:49:00,
2013-01-20 20:54:00,19.3,13.0,30.53,East,96,0.0,0.0,76,0.00,,,0.00,0,Wunderground v.1.15,2013-01-21 03:54:00,
2013-01-20 20:59:00,18.5,11.9,30.53,East,97,0.0,0.0,75,0.00,,,0.00,0,Wunderground v.1.15,2013-01-21 03:59:00,
2013-01-20 21:04:00,18.1,11.8,30.53,East,97,0.0,0.0,76,0.00,,,0.00,0,Wunderground v.1.15,2013-01-21 04:04:00,
2013-01-20 21:09:00,17.9,11.9,30.53,East,97,0.0,0.0,77,0.00,,,0.00,0,Wunderground v.1.15,2013-01-21 04:09:00,
2013-01-20 21:14:00,17.6,11.6,30.53,East,97,0.0,0.0,77,0.00,,,0.00,0,Wunderground v.1.15,2013-01-21 04:14:00,
2013-01-20 21:19:00,17.5,11.5,30.53,East,97,0.0,0.0,77,0.00,,,0.00,0,Wunderground v.1.15,2013-01-21 04:19:00,
2013-01-20 21:24:00,17.2,11.2,30.53,East,97,0.0,0.0,77,0.00,,,0.00,0,Wunderground v.1.15,2013-01-21 04:24:00,
2013-01-20 21:29:00,17.0,11.0,30.53,East,96,0.0,0.0,77,0.00,,,0.00,0,Wunderground v.1.15,2013-01-21 04:29:00,
2013-01-20 21:34:00,16.4,10.4,30.53,East,96,0.0,0.0,77,0.00,,,0.00,0,Wunderground v.1.15,2013-01-21 04:34:00,
2013-01-20 21:40:00,15.9,10.0,30.53,East,97,0.0,0.0,77,0.00,,,0.00,0,Wunderground v.1.15,2013-01-21 04:40:00,
2013-01-20 21:45:00,16.3,10.9,30.53,East,97,0.0,0.0,79,0.00,,,0.00,0,Wunderground v.1.15,2013-01-21 04:45:00,
2013-01-20 21:50:00,16.3,10.6,30.53,East,97,0.0,0.0,78,0.00,,,0.00,0,Wunderground v.1.15,2013-01-21 04:50:00,
2013-01-20 21:55:00,16.0,10.1,30.53,East,97,0.0,0.0,77,0.00,,,0.00,0,Wunderground v.1.15,2013-01-21 04:55:00,
2013-01-20 22:01:00,15.6,9.7,30.53,East,96,0.0,0.0,77,0.00,,,0.00,0,Wunderground v.1.15,2013-01-21 05:01:00,
2013-01-20 22:03:00,15.5,9.9,30.53,East,97,0.0,0.0,78,0.00,,,0.00,0,Wunderground v.1.15,2013-01-21 05:03:00,
2013-01-20 22:04:00,15.5,9.9,30.53,East,97,0.0,0.0,78,0.00,,,0.00,0,Wunderground v.1.15,2013-01-21 05:04:00,
2013-01-20 22:09:00,15.3,9.7,30.53,East,97,0.0,0.0,78,0.00,,,0.00,0,Wunderground v.1.15,2013-01-21 05:09:00,
2013-01-20 22:14:00,15.2,9.6,30.53,East,96,0.0,0.0,78,0.00,,,0.00,0,Wunderground v.1.15,2013-01-21 05:14:00,
2013-01-20 22:19:00,14.9,9.3,30.53,East,97,0.0,0.0,78,0.00,,,0.00,0,Wunderground v.1.15,2013-01-21 05:19:00,
2013-01-20 22:24:00,14.9,9.6,30.54,East,97,0.0,0.0,79,0.00,,,0.00,0,Wunderground v.1.15,2013-01-21 05:24:00,
2013-01-20 22:29:00,15.7,10.3,30.54,East,97,0.0,0.0,79,0.00,,,0.00,0,Wunderground v.1.15,2013-01-21 05:29:00,
2013-01-20 22:34:00,16.8,11.4,30.54,East,97,0.0,0.0,79,0.00,,,0.00,0,Wunderground v.1.15,2013-01-21 05:34:00,
2013-01-20 22:39:00,17.3,11.6,30.54,East,97,0.0,0.0,78,0.00,,,0.00,0,Wunderground v.1.15,2013-01-21 05:39:00,
2013-01-20 22:44:00,17.1,10.8,30.54,East,96,0.0,0.0,76,0.00,,,0.00,0,Wunderground v.1.15,2013-01-21 05:44:00,
2013-01-20 22:49:00,16.4,10.2,30.54,East,96,0.0,0.0,76,0.00,,,0.00,0,Wunderground v.1.15,2013-01-21 05:49:00,
2013-01-20 22:54:00,16.1,9.9,30.54,East,97,0.0,0.0,76,0.00,,,0.00,0,Wunderground v.1.15,2013-01-21 05:54:00,
2013-01-20 22:59:00,15.8,9.6,30.55,East,97,0.0,0.0,76,0.00,,,0.00,0,Wunderground v.1.15,2013-01-21 05:59:00,
2013-01-20 23:04:00,15.4,9.2,30.55,East,96,0.0,0.0,76,0.00,,,0.00,0,Wunderground v.1.15,2013-01-21 06:04:00,
2013-01-20 23:09:00,15.0,8.8,30.55,East,97,0.0,0.0,76,0.00,,,0.00,0,Wunderground v.1.15,2013-01-21 06:09:00,
2013-01-20 23:14:00,14.7,8.5,30.54,East,96,0.0,0.0,76,0.00,,,0.00,0,Wunderground v.1.15,2013-01-21 06:14:00,
2013-01-20 23:19:00,14.3,8.4,30.54,East,97,0.0,0.0,77,0.00,,,0.00,0,Wunderground v.1.15,2013-01-21 06:19:00,
2013-01-20 23:25:00,14.0,8.1,30.55,East,96,0.0,0.0,77,0.00,,,0.00,0,Wunderground v.1.15,2013-01-21 06:25:00,
2013-01-20 23:30:00,13.6,7.7,30.55,East,96,0.0,0.0,77,0.00,,,0.00,0,Wunderground v.1.15,2013-01-21 06:30:00,
2013-01-20 23:35:00,12.9,6.8,30.55,East,97,0.0,0.0,76,0.00,,,0.00,0,Wunderground v.1.15,2013-01-21 06:35:00,
2013-01-20 23:40:00,12.5,6.7,30.54,East,97,0.0,0.0,77,0.00,,,0.00,0,Wunderground v.1.15,2013-01-21 06:40:00,
2013-01-20 23:45:00,12.0,5.9,30.54,East,97,0.0,0.0,76,0.00,,,0.00,0,Wunderground v.1.15,2013-01-21 06:45:00,
2013-01-20 23:50:00,11.9,6.1,30.54,East,97,0.0,0.0,77,0.00,,,0.00,0,Wunderground v.1.15,2013-01-21 06:50:00,
2013-01-20 23:55:00,12.3,6.7,30.54,East,97,0.0,0.0,78,0.00,,,0.00,0,Wunderground v.1.15,2013-01-21 06:55:00,